Time;durP1;ratioP1;P1;durP2;ratioP2;P2;SDS_P1;SDS_P2;PMS_P1;PMS_P2;Temp;Humidity;BMP_temperature;BMP_pressure;BME280_temperature;BME280_humidity;BME280_pressure;Samples;Min_cycle;Max_cycle;Signal;HPM_P1;HPM_P2
2022/08/04 00:01:16;;;;;;;10.93;5.05;;;;;;;21.12;57.63;101000.19;4823515;29;20038;-53
2022/08/04 00:03:55;;;;;;;6.43;3.88;;;;;;;21.07;58.99;101001.81;4820334;29;20049;-52
2022/08/04 00:06:45;;;;;;;9.05;3.88;;;;;;;21.33;58.11;100997.19;4835555;29;20124;-54
2022/08/04 00:09:30;;;;;;;4.97;3.72;;;;;;;20.94;58.41;100999.63;4832806;29;20034;-52
2022/08/04 00:12:01;;;;;;;;;;;;;;;20.89;58.87;101005.06;4822981;29;20034;-53
2022/08/04 00:14:33;;;;;;;5.25;4.03;;;;;;;20.82;59.24;100994.44;4815957;29;19928;-53
2022/08/04 00:17:05;;;;;;;6.43;3.47;;;;;;;20.78;59.46;100990.63;4805316;29;20031;-53
2022/08/04 00:19:43;;;;;;;5.43;4.22;;;;;;;20.94;59.68;100983.31;4817326;29;20034;-51
2022/08/04 00:22:12;;;;;;;6.05;3.83;;;;;;;21.11;58.52;100990.38;4826346;29;20109;-54
2022/08/04 00:24:40;;;;;;;8.80;3.80;;;;;;;21.24;58.15;100984.38;4823881;29;20102;-55
2022/08/04 00:27:08;;;;;;;7.25;3.70;;;;;;;21.34;57.99;100987.13;4821217;29;20062;-50
2022/08/04 00:29:38;;;;;;;7.20;3.83;;;;;;;20.98;58.69;100978.94;4822552;29;20053;-52
2022/08/04 00:32:06;;;;;;;8.20;4.32;;;;;;;20.80;59.85;100976.75;4813909;29;20102;-52
2022/08/04 00:34:33;;;;;;;8.50;3.85;;;;;;;20.94;58.99;100968.88;4820511;29;20041;-53
2022/08/04 00:37:00;;;;;;;17.52;4.30;;;;;;;21.08;58.58;100956.34;4821549;29;20038;-52
2022/08/04 00:39:26;;;;;;;6.38;3.60;;;;;;;20.77;59.52;100956.34;4818402;29;20037;-54
2022/08/04 00:42:02;;;;;;;9.40;3.65;;;;;;;20.55;59.40;100959.31;4822267;29;20387;-53
2022/08/04 00:44:34;;;;;;;7.45;3.88;;;;;;;20.83;59.56;100955.28;4823501;29;20038;-53
2022/08/04 00:47:04;;;;;;;8.43;3.75;;;;;;;20.39;59.88;100957.63;4822520;29;20038;-54
2022/08/04 00:50:02;;;;;;;5.45;3.55;;;;;;;20.15;60.59;100961.88;4822786;29;20129;-55
2022/08/04 00:52:46;;;;;;;6.05;3.55;;;;;;;20.29;60.69;100963.84;4823361;29;20090;-54
2022/08/04 00:55:44;;;;;;;10.55;4.30;;;;;;;20.01;61.66;100978.69;4823200;29;20140;-54
2022/08/04 00:58:17;;;;;;;7.30;4.22;;;;;;;20.10;61.83;100967.31;4822758;29;20399;-53
2022/08/04 01:00:58;;;;;;;9.10;4.03;;;;;;;19.69;62.30;100958.97;4822976;29;20145;-55
2022/08/04 01:03:42;;;;;;;7.78;4.65;;;;;;;19.60;63.44;100955.13;4823084;29;20504;-54
2022/08/04 01:06:33;;;;;;;11.93;5.13;;;;;;;19.37;64.09;100951.69;4820554;29;20040;-54
2022/08/04 01:09:23;;;;;;;10.20;4.90;;;;;;;19.35;63.79;100955.78;4822145;29;20419;-54
2022/08/04 01:12:14;;;;;;;9.90;5.43;;;;;;;19.28;64.01;100961.44;4818168;29;20042;-54
2022/08/04 01:15:05;;;;;;;14.32;5.65;;;;;;;18.43;66.81;100949.53;4812997;29;20030;-54
2022/08/04 01:17:49;;;;;;;11.95;5.35;;;;;;;18.54;66.74;100947.75;4822184;29;20030;-53
2022/08/04 01:20:25;;;;;;;10.13;5.73;;;;;;;18.40;67.40;100944.63;4805522;29;20126;-53
2022/08/04 01:23:09;;;;;;;14.25;6.00;;;;;;;18.04;68.98;100936.09;4817121;29;20034;-55
2022/08/04 01:26:27;;;;;;;15.60;5.53;;;;;;;18.14;68.83;100936.22;4819414;29;20373;-54
2022/08/04 01:29:08;;;;;;;11.90;5.85;;;;;;;18.20;68.75;100935.19;4815551;29;20045;-54
2022/08/04 01:31:34;;;;;;;11.82;5.50;;;;;;;18.35;68.14;100936.44;4807240;29;20555;-53
2022/08/04 01:34:04;;;;;;;16.40;5.82;;;;;;;18.20;68.61;100942.50;4807401;29;20516;-53
2022/08/04 01:36:36;;;;;;;10.70;5.40;;;;;;;18.17;68.87;100924.06;4804151;29;20027;-52
2022/08/04 01:39:39;;;;;;;13.27;6.15;;;;;;;18.25;68.03;100936.34;4817558;29;20042;-52
2022/08/04 01:41:54;;;;;;;13.05;5.78;;;;;;;18.26;68.45;100940.69;4825732;29;20042;-51
2022/08/04 01:44:23;;;;;;;14.02;5.97;;;;;;;17.95;69.47;100934.94;4825564;29;20023;-52
2022/08/04 01:46:52;;;;;;;19.25;7.18;;;;;;;17.92;69.99;100921.88;4815150;29;20027;-53
2022/08/04 01:49:21;;;;;;;15.32;6.13;;;;;;;17.79;70.36;100927.69;4830593;29;20079;-53
2022/08/04 01:51:51;;;;;;;15.50;6.70;;;;;;;17.71;70.52;100928.06;4816541;29;20042;-53
2022/08/04 01:54:18;;;;;;;11.77;5.80;;;;;;;17.60;70.55;100924.41;4825758;29;20113;-52
2022/08/04 01:56:49;;;;;;;17.38;6.53;;;;;;;17.77;70.58;100913.59;4825284;29;20547;-53
2022/08/04 01:59:18;;;;;;;15.23;6.65;;;;;;;17.74;70.29;100924.91;4825299;29;20038;-56
2022/08/04 02:01:45;;;;;;;11.02;6.32;;;;;;;18.05;69.23;100920.69;4825468;29;20065;-49
2022/08/04 02:04:16;;;;;;;17.75;7.68;;;;;;;18.03;69.75;100915.50;4825403;29;20063;-51
2022/08/04 02:06:52;;;;;;;18.15;7.00;;;;;;;17.94;69.51;100919.75;4821916;29;20042;-53
2022/08/04 02:09:44;;;;;;;18.50;6.75;;;;;;;17.87;69.50;100910.97;4817165;29;20039;-52
2022/08/04 02:12:25;;;;;;;16.15;7.35;;;;;;;17.95;69.66;100913.25;4810324;29;20046;-53
2022/08/04 02:15:15;;;;;;;22.13;7.45;;;;;;;17.67;70.16;100919.66;4818461;29;20034;-53
2022/08/04 02:17:58;;;;;;;18.42;7.43;;;;;;;17.65;70.73;100938.84;4811587;29;20092;-52
2022/08/04 02:20:31;;;;;;;17.05;7.10;;;;;;;17.61;71.25;100937.72;4806719;29;20247;-51
2022/08/04 02:23:07;;;;;;;22.77;7.95;;;;;;;17.93;70.05;100935.19;4824580;29;20034;-49
2022/08/04 02:25:53;;;;;;;17.30;7.47;;;;;;;17.62;70.67;100939.34;4824780;29;20051;-50
2022/08/04 02:28:50;;;;;;;20.15;7.43;;;;;;;17.44;71.57;100946.94;4823536;29;20037;-50
2022/08/04 02:31:22;;;;;;;18.65;7.65;;;;;;;17.75;70.71;100949.00;4806051;29;20085;-49
2022/08/04 02:34:00;;;;;;;20.15;8.10;;;;;;;17.49;71.39;100941.59;4806589;29;20059;-48
2022/08/04 02:36:30;;;;;;;21.27;7.53;;;;;;;17.32;72.02;100952.44;4806299;29;20050;-50
2022/08/04 02:39:02;;;;;;;18.33;8.05;;;;;;;17.36;71.90;100943.56;4806351;29;20027;-51
2022/08/04 02:41:30;;;;;;;13.80;7.53;;;;;;;17.10;72.66;100944.25;4806468;29;20110;-50
2022/08/04 02:44:04;;;;;;;18.52;7.65;;;;;;;17.17;72.75;100950.34;4821455;29;20030;-48
2022/08/04 02:46:32;;;;;;;22.42;8.55;;;;;;;17.18;72.63;100960.09;4824048;29;20148;-47
2022/08/04 02:49:03;;;;;;;12.70;6.57;;;;;;;16.80;73.78;100945.41;4824149;29;20065;-48
2022/08/04 02:51:33;;;;;;;24.65;8.30;;;;;;;16.77;74.00;100948.63;4823706;29;20072;-48
2022/08/04 02:54:01;;;;;;;18.20;7.35;;;;;;;16.94;73.26;100948.63;4824234;29;20034;-48
2022/08/04 02:56:30;;;;;;;14.75;6.25;;;;;;;16.89;73.49;100946.66;4823994;29;20035;-51
2022/08/04 02:59:00;;;;;;;16.77;6.78;;;;;;;16.82;73.41;100946.00;4824086;29;20069;-51
2022/08/04 03:01:27;;;;;;;12.57;6.10;;;;;;;16.60;73.92;100956.66;4806075;29;20062;-49
2022/08/04 03:04:31;;;;;;;13.35;7.00;;;;;;;16.43;75.11;100939.56;4820356;29;20030;-51
2022/08/04 03:07:31;;;;;;;14.88;7.15;;;;;;;16.63;74.53;100942.66;4807388;29;20038;-50
2022/08/04 03:10:09;;;;;;;11.60;6.57;;;;;;;16.51;74.73;100941.09;4815030;29;20492;-49
2022/08/04 03:13:14;;;;;;;18.55;6.72;;;;;;;16.49;75.27;100941.34;4821861;29;20045;-51
2022/08/04 03:16:22;;;;;;;15.60;7.15;;;;;;;16.61;74.54;100936.69;4821084;29;20492;-47
2022/08/04 03:18:53;;;;;;;14.73;6.82;;;;;;;16.57;74.68;100949.03;4822316;29;20121;-51
2022/08/04 03:21:44;;;;;;;16.58;7.45;;;;;;;16.48;75.83;100931.56;4821921;29;20038;-51
2022/08/04 03:24:42;;;;;;;13.18;6.68;;;;;;;16.26;76.85;100936.81;4822320;29;20030;-50
2022/08/04 03:27:24;;;;;;;15.20;7.57;;;;;;;16.52;75.99;100932.72;4805020;29;20066;-51
2022/08/04 03:30:14;;;;;;;18.75;7.53;;;;;;;16.51;75.32;100933.78;4809342;29;20050;-51
2022/08/04 03:33:01;;;;;;;17.77;6.93;;;;;;;16.60;74.50;100935.03;4823838;29;20078;-50
2022/08/04 03:35:53;;;;;;;15.73;7.65;;;;;;;16.41;75.64;100939.00;4822179;29;20114;-50
2022/08/04 03:38:22;;;;;;;15.48;7.55;;;;;;;16.51;75.29;100928.38;4823362;29;20042;-49
2022/08/04 03:40:48;;;;;;;18.20;7.50;;;;;;;16.54;75.26;100924.38;4820387;29;20113;-49
2022/08/04 03:43:23;;;;;;;22.42;7.47;;;;;;;16.52;75.90;100930.03;4823349;29;20057;-50
2022/08/04 03:45:52;;;;;;;17.60;7.28;;;;;;;16.51;76.01;100933.78;4821697;29;20053;-51
2022/08/04 03:48:39;;;;;;;18.27;7.43;;;;;;;16.68;75.64;100930.28;4823137;29;20445;-51
2022/08/04 03:54:28;;;;;;;19.70;7.45;;;;;;;16.81;75.47;100943.50;4822585;29;20091;-50
2022/08/04 03:57:10;;;;;;;18.60;7.88;;;;;;;16.62;76.45;100935.63;4823048;29;20046;-51
2022/08/04 04:00:02;;;;;;;16.63;7.63;;;;;;;16.76;75.75;100936.13;4821691;29;20034;-51
2022/08/04 04:02:34;;;;;;;19.70;7.45;;;;;;;16.69;75.63;100940.84;4821479;29;20045;-48
2022/08/04 04:05:37;;;;;;;17.02;6.97;;;;;;;16.62;75.48;100945.59;4819859;29;20034;-51
2022/08/04 04:08:22;;;;;;;18.55;8.10;;;;;;;16.59;75.71;100940.69;4815612;29;20045;-48
2022/08/04 04:11:00;;;;;;;21.70;8.30;;;;;;;16.41;76.18;100943.59;4822912;29;20045;-52
2022/08/04 04:13:39;;;;;;;16.95;7.22;;;;;;;16.52;75.87;100950.81;4821259;29;20042;-49
2022/08/04 04:16:18;;;;;;;22.65;7.97;;;;;;;16.60;75.32;100943.16;4822997;29;20164;-51
2022/08/04 04:19:14;;;;;;;16.55;7.38;;;;;;;16.43;75.91;100963.88;4820982;29;20038;-51
2022/08/04 04:21:55;;;;;;;15.30;7.30;;;;;;;16.54;75.33;100957.59;4821700;29;20055;-50
2022/08/04 04:24:59;;;;;;;17.63;7.40;;;;;;;16.41;75.90;100952.50;4814122;29;20038;-51
2022/08/04 04:27:50;;;;;;;18.15;7.68;;;;;;;16.50;75.23;100952.97;4821316;29;20038;-51
2022/08/04 04:30:28;;;;;;;19.27;7.13;;;;;;;16.58;75.11;100961.47;4822664;29;20515;-51
2022/08/04 04:33:18;;;;;;;22.17;8.30;;;;;;;16.44;75.97;100954.75;4821820;29;20369;-51
2022/08/04 04:35:56;;;;;;;20.30;8.25;;;;;;;16.45;75.77;100967.19;4816915;29;20559;-51
2022/08/04 04:38:25;;;;;;;22.73;7.68;;;;;;;16.48;75.58;100963.97;4822333;29;20183;-49
2022/08/04 04:40:59;;;;;;;20.73;8.85;;;;;;;16.37;76.49;100964.84;4822382;29;20162;-51
2022/08/04 04:43:44;;;;;;;17.98;8.35;;;;;;;16.25;77.10;100972.19;4816113;29;20077;-51
2022/08/04 04:46:25;;;;;;;21.40;8.57;;;;;;;16.20;77.42;100962.09;4804406;29;20039;-48
2022/08/04 04:49:08;;;;;;;15.35;7.38;;;;;;;16.36;76.56;100955.94;4804468;29;20091;-48
2022/08/04 04:51:48;;;;;;;18.52;7.80;;;;;;;16.52;76.02;100962.44;4804346;29;20042;-51
2022/08/04 04:55:04;;;;;;;23.77;8.70;;;;;;;16.37;76.70;100972.97;4811765;29;20543;-51
2022/08/04 04:57:35;;;;;;;17.48;7.53;;;;;;;16.30;76.89;100972.28;4783662;30;20405;-51
2022/08/04 05:00:07;;;;;;;21.40;8.50;;;;;;;16.43;76.20;100968.47;4816051;29;20041;-51
2022/08/04 05:03:20;;;;;;;16.75;7.72;;;;;;;16.36;76.71;100974.03;4822494;29;20042;-51
2022/08/04 05:06:08;;;;;;;17.92;7.60;;;;;;;16.29;76.87;100973.34;4765980;30;20023;-50
2022/08/04 05:09:07;;;;;;;21.15;7.97;;;;;;;16.28;76.68;100980.66;4802072;29;20175;-48
2022/08/04 05:12:06;;;;;;;20.70;7.72;;;;;;;16.34;76.62;100970.75;4803880;29;20042;-51
2022/08/04 05:14:39;;;;;;;20.88;7.78;;;;;;;16.15;77.51;100978.19;4807253;29;20033;-49
2022/08/04 05:17:18;;;;;;;18.13;7.63;;;;;;;16.16;77.19;100970.91;4823303;29;20068;-47
2022/08/04 05:20:03;;;;;;;23.23;7.72;;;;;;;16.11;77.67;100974.38;4825713;29;20058;-50
2022/08/04 05:22:36;;;;;;;23.52;9.00;;;;;;;16.21;77.06;100976.41;4825618;29;20070;-51
2022/08/04 05:25:13;;;;;;;23.63;8.45;;;;;;;16.16;77.45;100973.63;4825309;29;20035;-51
2022/08/04 05:27:45;;;;;;;27.42;8.48;;;;;;;16.20;76.90;100978.31;4825632;29;20034;-50
2022/08/04 05:30:12;;;;;;;23.70;8.38;;;;;;;16.23;77.18;100977.84;4825218;29;20047;-49
2022/08/04 05:32:48;;;;;;;21.50;7.70;;;;;;;16.27;77.08;100978.19;4825480;29;20027;-51
2022/08/04 05:35:40;;;;;;;23.13;7.95;;;;;;;16.21;77.21;100966.47;4825572;29;20030;-48
2022/08/04 05:38:10;;;;;;;20.40;9.00;;;;;;;15.99;77.95;100962.75;4807351;29;20027;-51
2022/08/04 05:40:38;;;;;;;22.38;9.13;;;;;;;16.00;78.29;100962.53;4807675;29;20046;-50
2022/08/04 05:43:05;;;;;;;26.05;8.27;;;;;;;16.01;78.12;100955.25;4807500;29;20039;-49
2022/08/04 05:45:34;;;;;;;27.15;9.05;;;;;;;16.05;77.60;100961.81;4808068;29;20027;-51
2022/08/04 05:48:05;;;;;;;20.77;7.95;;;;;;;16.09;77.44;100952.97;4807409;29;20038;-51
2022/08/04 05:50:32;;;;;;;25.70;8.65;;;;;;;16.13;77.69;100952.50;4819406;29;20069;-50
2022/08/04 05:53:00;;;;;;;22.50;8.88;;;;;;;16.02;78.18;100957.69;4825053;29;20031;-51
2022/08/04 05:55:28;;;;;;;19.80;8.43;;;;;;;15.95;78.21;100951.63;4811285;29;20539;-51
2022/08/04 05:57:58;;;;;;;26.48;9.00;;;;;;;15.96;78.18;100945.16;4806763;29;20034;-51
2022/08/04 06:00:26;;;;;;;19.98;8.57;;;;;;;16.01;78.18;100947.97;4808650;29;20054;-50
2022/08/04 06:02:53;;;;;;;19.15;8.00;;;;;;;16.07;77.78;100946.19;4824716;29;20083;-50
2022/08/04 06:05:20;;;;;;;21.05;8.32;;;;;;;15.94;78.03;100946.47;4818610;29;20121;-52
2022/08/04 06:07:47;;;;;;;20.55;7.53;;;;;;;15.99;77.57;100942.00;4820458;29;20088;-48
2022/08/04 06:10:15;;;;;;;22.77;8.00;;;;;;;15.88;78.30;100940.16;4814216;29;20043;-48
2022/08/04 06:13:05;;;;;;;21.83;7.97;;;;;;;16.00;77.58;100946.34;4806521;29;20324;-56
2022/08/04 06:15:38;;;;;;;19.70;7.90;;;;;;;16.03;77.72;100948.53;4807191;29;20037;-47
2022/08/04 06:18:06;;;;;;;25.45;8.90;;;;;;;15.97;78.23;100949.50;4806711;29;20027;-51
2022/08/04 06:20:36;;;;;;;23.63;8.13;;;;;;;15.92;78.56;100957.50;4806764;29;20042;-51
2022/08/04 06:23:15;;;;;;;27.95;8.45;;;;;;;16.03;77.78;100951.25;4822996;29;20038;-50
2022/08/04 06:25:50;;;;;;;22.88;8.13;;;;;;;16.03;77.58;100955.81;4808613;29;20058;-50
2022/08/04 06:28:18;;;;;;;24.63;8.27;;;;;;;15.92;77.98;100962.88;4817089;29;20031;-48
2022/08/04 06:30:48;;;;;;;15.13;7.63;;;;;;;15.98;77.81;100956.53;4823707;29;20085;-50
2022/08/04 06:33:25;;;;;;;19.38;7.90;;;;;;;15.91;77.87;100958.56;4823645;29;20085;-50
2022/08/04 06:35:54;;;;;;;28.50;8.35;;;;;;;15.83;77.88;100959.75;4823850;29;20168;-51
2022/08/04 06:38:23;;;;;;;19.13;7.28;;;;;;;15.85;77.92;100954.09;4823267;29;20030;-51
2022/08/04 06:40:50;;;;;;;22.95;8.23;;;;;;;15.86;77.89;100946.84;4822051;29;20034;-51
2022/08/04 06:43:17;;;;;;;18.45;7.70;;;;;;;15.99;77.45;100952.78;4805207;29;20035;-51
2022/08/04 06:45:44;;;;;;;18.38;6.97;;;;;;;15.87;78.04;100954.69;4805593;29;20041;-51
2022/08/04 06:48:14;;;;;;;18.15;7.60;;;;;;;15.94;77.68;100944.59;4805124;29;20041;-51
2022/08/04 06:50:42;;;;;;;17.23;7.35;;;;;;;15.94;77.57;100943.78;4805224;29;20502;-51
2022/08/04 06:53:09;;;;;;;18.33;7.55;;;;;;;15.92;77.60;100945.88;4815835;29;20426;-51
2022/08/04 06:55:35;;;;;;;21.77;7.70;;;;;;;15.88;77.61;100945.56;4823503;29;20177;-49
2022/08/04 06:58:02;;;;;;;24.73;8.32;;;;;;;15.88;77.87;100936.59;4823495;29;20113;-51
2022/08/04 07:00:30;;;;;;;25.65;7.15;;;;;;;15.95;77.65;100945.41;4807314;29;20049;-50
2022/08/04 07:02:56;;;;;;;21.02;7.72;;;;;;;15.95;77.69;100940.81;4805369;29;20106;-52
2022/08/04 07:05:23;;;;;;;18.63;7.68;;;;;;;15.89;77.58;100952.59;4805084;29;20111;-49
2022/08/04 07:07:49;;;;;;;23.13;7.50;;;;;;;15.85;77.80;100951.41;4815527;29;20057;-51
2022/08/04 07:10:17;;;;;;;17.38;7.47;;;;;;;15.84;77.98;100960.56;4823263;29;20400;-51
2022/08/04 07:12:44;;;;;;;19.40;7.53;;;;;;;15.72;78.29;100957.06;4805773;29;20499;-49
2022/08/04 07:15:11;;;;;;;17.60;7.78;;;;;;;15.88;77.77;100952.81;4814748;29;20165;-50
2022/08/04 07:17:39;;;;;;;21.75;7.75;;;;;;;15.72;78.76;100946.28;4822593;29;20037;-51
2022/08/04 07:20:06;;;;;;;21.48;8.23;;;;;;;15.91;78.10;100946.94;4823054;29;20122;-47
2022/08/04 07:22:33;;;;;;;24.77;7.63;;;;;;;15.79;78.62;100949.66;4821674;29;20037;-51
2022/08/04 07:24:59;;;;;;;27.70;8.00;;;;;;;15.74;78.64;100944.97;4822950;29;20030;-49
2022/08/04 07:27:26;;;;;;;19.10;7.68;;;;;;;15.75;78.71;100945.78;4822668;29;20043;-50
2022/08/04 07:29:53;;;;;;;23.98;8.23;;;;;;;15.74;78.55;100939.56;4727807;29;2854704;-51
2022/08/04 07:32:20;;;;;;;19.50;7.97;;;;;;;15.68;78.96;100935.13;4823815;29;20086;-51
2022/08/04 07:34:49;;;;;;;21.95;7.80;;;;;;;15.70;78.87;100938.41;4823541;29;20030;-51
2022/08/04 07:37:15;;;;;;;19.95;7.88;;;;;;;15.79;78.45;100946.97;4822982;29;20034;-50
2022/08/04 07:39:42;;;;;;;22.10;7.50;;;;;;;15.74;78.75;100944.16;4823871;29;20034;-50
2022/08/04 07:42:09;;;;;;;19.80;7.93;;;;;;;15.75;78.57;100941.22;4823845;29;20531;-50
2022/08/04 07:44:35;;;;;;;32.60;8.35;;;;;;;15.60;79.42;100943.53;4823518;29;20083;-50
2022/08/04 07:47:06;;;;;;;24.20;9.15;;;;;;;15.62;79.19;100946.03;4823158;29;20117;-49
2022/08/04 07:49:33;;;;;;;28.00;8.30;;;;;;;15.69;78.59;100960.25;4823686;29;20137;-51
2022/08/04 07:52:00;;;;;;;23.88;8.50;;;;;;;15.62;78.89;100957.63;4823409;29;20035;-51
2022/08/04 07:54:27;;;;;;;23.40;8.18;;;;;;;15.58;79.03;100965.38;4823508;29;20045;-51
2022/08/04 07:56:54;;;;;;;21.48;7.82;;;;;;;15.69;78.52;100960.25;4823042;29;20059;-50
2022/08/04 07:59:20;;;;;;;25.88;7.75;;;;;;;15.59;78.91;100958.91;4823648;29;20041;-51
2022/08/04 08:01:47;;;;;;;25.70;8.18;;;;;;;15.64;78.89;100955.53;4823293;29;20026;-51
2022/08/04 08:04:15;;;;;;;18.42;6.47;;;;;;;15.59;78.85;100953.53;4823190;29;20097;-49
2022/08/04 08:06:41;;;;;;;23.17;8.27;;;;;;;15.52;79.04;100954.72;4812872;29;20517;-50
2022/08/04 08:09:12;;;;;;;19.88;7.63;;;;;;;15.48;79.50;100957.03;4804993;29;20026;-49
2022/08/04 08:11:40;;;;;;;16.55;7.45;;;;;;;15.52;79.07;100960.94;4814680;29;20030;-50
2022/08/04 08:14:07;;;;;;;21.55;7.68;;;;;;;15.47;78.95;100966.19;4820782;29;20109;-49
2022/08/04 08:16:35;;;;;;;18.75;6.68;;;;;;;15.43;79.18;100962.31;4821480;29;20619;-51
2022/08/04 08:19:01;;;;;;;18.80;7.68;;;;;;;15.38;79.27;100966.78;4821762;29;20046;-50
2022/08/04 08:21:28;;;;;;;22.92;8.48;;;;;;;15.45;78.51;100970.22;4821612;29;20031;-50
2022/08/04 08:23:55;;;;;;;18.30;7.15;;;;;;;15.43;78.48;100969.59;4823114;29;20042;-51
2022/08/04 08:26:21;;;;;;;22.92;7.78;;;;;;;15.30;78.88;100970.66;4821344;29;20030;-49
2022/08/04 08:28:48;;;;;;;27.17;8.00;;;;;;;15.21;79.30;100969.34;4822669;29;20049;-51
2022/08/04 08:31:14;;;;;;;19.70;7.35;;;;;;;15.18;79.31;100967.97;4822824;29;20050;-51
2022/08/04 08:33:41;;;;;;;17.60;7.20;;;;;;;15.08;79.95;100966.88;4820792;29;20054;-47
2022/08/04 08:36:10;;;;;;;27.60;8.23;;;;;;;15.03;80.25;100965.72;4822750;29;20513;-51
2022/08/04 08:39:17;;;;;;;28.58;8.32;;;;;;;15.09;80.03;100963.97;4821838;29;20039;-50
2022/08/04 08:42:08;;;;;;;24.25;8.00;;;;;;;15.14;79.64;100966.78;4815124;29;20074;-50
2022/08/04 08:45:02;;;;;;;24.42;7.85;;;;;;;15.16;79.19;100970.09;4822745;29;20129;-50
2022/08/04 08:48:01;;;;;;;22.20;7.32;;;;;;;15.17;79.50;100969.03;4820708;29;20169;-49
2022/08/04 08:51:04;;;;;;;22.95;7.65;;;;;;;15.16;79.39;100964.69;4826679;29;20035;-51
2022/08/04 08:53:57;;;;;;;22.63;7.32;;;;;;;15.17;79.47;100962.81;4825223;29;20066;-50
2022/08/04 08:56:51;;;;;;;28.00;8.07;;;;;;;15.16;79.70;100953.91;4825154;29;20034;-51
2022/08/04 08:59:32;;;;;;;23.67;8.30;;;;;;;15.15;79.88;100956.81;4826301;29;20034;-48
2022/08/04 09:02:21;;;;;;;21.90;7.25;;;;;;;15.08;79.86;100969.59;4824955;29;20049;-51
2022/08/04 09:05:17;;;;;;;32.75;8.27;;;;;;;15.05;80.44;100963.63;4798636;29;20496;-50
2022/08/04 09:08:10;;;;;;;27.90;7.47;;;;;;;15.02;80.11;100966.75;4824088;29;20049;-51
2022/08/04 09:10:46;;;;;;;22.75;7.93;;;;;;;15.10;79.88;100962.06;4825600;29;20034;-51
2022/08/04 09:13:55;;;;;;;20.08;7.57;;;;;;;15.03;80.12;100960.31;4824038;29;20038;-51
2022/08/04 09:16:35;;;;;;;23.52;7.53;;;;;;;15.00;80.00;100963.50;4791310;29;20052;-51
2022/08/04 09:19:48;;;;;;;17.75;7.07;;;;;;;15.01;80.22;100958.91;4825097;29;20040;-48
2022/08/04 09:22:19;;;;;;;33.20;7.85;;;;;;;15.00;80.03;100968.06;4805348;29;20458;-51
2022/08/04 09:25:20;;;;;;;18.88;7.63;;;;;;;15.06;80.03;100964.44;4802890;29;20241;-50
2022/08/04 09:27:56;;;;;;;23.45;7.63;;;;;;;14.94;80.23;100950.94;4803970;29;20049;-51
2022/08/04 09:30:48;;;;;;;23.73;7.72;;;;;;;15.08;79.61;100956.09;4822589;29;20181;-51
2022/08/04 09:33:38;;;;;;;24.13;8.77;;;;;;;15.07;79.63;100954.47;4825726;29;20031;-51
2022/08/04 09:36:25;;;;;;;17.08;7.53;;;;;;;15.10;79.40;100952.13;4823214;29;20155;-50
2022/08/04 09:39:11;;;;;;;24.55;6.68;;;;;;;15.05;79.33;100949.31;4825636;29;20038;-51
2022/08/04 09:42:09;;;;;;;22.50;8.07;;;;;;;15.03;79.63;100948.72;4807288;29;20438;-50
2022/08/04 09:44:53;;;;;;;27.77;7.65;;;;;;;14.92;79.97;100957.59;4810423;29;20069;-50
2022/08/04 09:47:53;;;;;;;22.65;7.38;;;;;;;14.98;79.76;100949.41;4824996;29;20041;-51
2022/08/04 09:50:34;;;;;;;30.17;8.30;;;;;;;15.05;79.90;100952.84;4800946;29;20496;-48
2022/08/04 09:53:18;;;;;;;18.05;7.32;;;;;;;14.98;80.22;100943.19;4825392;29;20091;-50
2022/08/04 09:55:47;;;;;;;24.45;7.45;;;;;;;15.01;79.97;100940.06;4823429;29;20022;-48
2022/08/04 09:58:45;;;;;;;24.15;7.85;;;;;;;15.06;79.85;100950.97;4825212;29;20027;-48
2022/08/04 10:01:22;;;;;;;21.98;7.30;;;;;;;15.11;79.77;100948.38;4823651;29;20030;-49
2022/08/04 10:03:54;;;;;;;23.40;7.68;;;;;;;15.20;79.50;100948.84;4825055;29;20050;-51
2022/08/04 10:06:59;;;;;;;28.25;7.90;;;;;;;15.13;79.66;100942.75;4823266;29;20395;-47
2022/08/04 10:10:02;;;;;;;28.05;8.25;;;;;;;15.07;79.95;100943.69;4823812;29;20031;-51
2022/08/04 10:12:38;;;;;;;27.33;7.28;;;;;;;15.03;79.91;100943.31;4825103;29;20034;-50
2022/08/04 10:15:18;;;;;;;25.02;7.18;;;;;;;14.99;80.39;100940.28;4823399;29;20049;-52
2022/08/04 10:17:53;;;;;;;20.95;7.78;;;;;;;15.07;79.92;100949.09;4824584;29;20081;-51
2022/08/04 10:20:25;;;;;;;;;;;;;;;15.08;80.16;100946.16;4822964;29;20034;-50
2022/08/04 10:23:11;;;;;;;25.83;8.68;;;;;;;15.03;80.54;100949.53;4824769;29;19960;-51
2022/08/04 10:25:52;;;;;;;32.50;7.97;;;;;;;15.01;80.43;100946.25;4823202;29;20033;-49
2022/08/04 10:28:22;;;;;;;27.55;7.45;;;;;;;14.96;81.02;100945.31;4824590;29;20034;-51
2022/08/04 10:30:54;;;;;;;24.30;7.32;;;;;;;14.88;81.61;100943.78;4822825;29;20050;-50
2022/08/04 10:33:26;;;;;;;20.88;7.68;;;;;;;14.92;81.35;100942.25;4824713;29;20580;-50
2022/08/04 10:36:27;;;;;;;27.10;8.60;;;;;;;14.84;81.97;100942.59;4823051;29;20083;-50
2022/08/04 10:39:12;;;;;;;25.90;7.25;;;;;;;14.92;81.47;100939.56;4794773;29;20480;-52
2022/08/04 10:41:59;;;;;;;21.35;7.10;;;;;;;14.84;81.38;100944.47;4815767;29;20034;-47
2022/08/04 10:44:36;;;;;;;24.73;7.80;;;;;;;14.93;81.27;100941.19;4805958;29;20041;-49
2022/08/04 10:47:15;;;;;;;28.20;7.05;;;;;;;14.87;81.68;100936.72;4823436;29;20038;-51
2022/08/04 10:49:45;;;;;;;23.27;8.13;;;;;;;14.81;81.99;100934.97;4823204;29;20056;-49
2022/08/04 10:52:29;;;;;;;20.88;7.78;;;;;;;14.74;82.40;100931.56;4824520;29;20142;-51
2022/08/04 10:55:16;;;;;;;26.50;7.68;;;;;;;14.79;82.31;100937.09;4823072;29;20041;-51
2022/08/04 10:57:49;;;;;;;24.50;7.50;;;;;;;14.88;82.15;100934.84;4805743;29;20030;-51
2022/08/04 11:00:27;;;;;;;28.48;8.05;;;;;;;14.82;82.11;100933.91;4809989;29;20031;-51
2022/08/04 11:03:05;;;;;;;22.67;7.22;;;;;;;14.80;82.63;100936.03;4824414;29;20045;-51
2022/08/04 11:05:49;;;;;;;22.73;8.13;;;;;;;14.83;82.97;100954.44;4823058;29;20494;-51
2022/08/04 11:08:44;;;;;;;25.23;8.10;;;;;;;14.89;82.53;100942.72;4824211;29;20038;-50
2022/08/04 11:11:19;;;;;;;18.40;7.38;;;;;;;14.82;82.96;100952.78;4822148;29;20045;-50
2022/08/04 11:14:07;;;;;;;29.70;8.60;;;;;;;14.86;82.64;100950.44;4822715;29;20514;-51
2022/08/04 11:16:59;;;;;;;23.67;7.47;;;;;;;14.94;81.99;100953.66;4823859;29;20037;-50
2022/08/04 11:20:02;;;;;;;20.38;6.78;;;;;;;14.94;82.25;100956.34;4823134;29;20074;-50
2022/08/04 11:22:29;;;;;;;31.00;8.10;;;;;;;14.91;82.58;100951.41;4822529;29;20041;-50
2022/08/04 11:25:13;;;;;;;21.05;7.28;;;;;;;14.88;82.62;100954.56;4822714;29;20090;-49
2022/08/04 11:28:24;;;;;;;22.77;7.70;;;;;;;14.98;82.04;100959.38;4822021;29;20514;-51
2022/08/04 11:31:05;;;;;;;23.65;8.15;;;;;;;14.81;82.73;100950.31;4818465;29;20134;-51
2022/08/04 11:33:56;;;;;;;27.08;8.02;;;;;;;14.84;82.66;100950.69;4823688;29;20045;-50
2022/08/04 11:36:35;;;;;;;23.15;8.80;;;;;;;14.93;82.40;100960.06;4823102;29;20109;-49
2022/08/04 11:39:11;;;;;;;23.00;9.50;;;;;;;14.96;82.15;100956.91;4823799;29;20144;-51
2022/08/04 11:41:48;;;;;;;19.58;7.25;;;;;;;14.99;81.99;100963.69;4815512;29;20114;-50
2022/08/04 11:44:31;;;;;;;29.20;7.60;;;;;;;15.00;82.15;100955.41;4805207;29;20536;-51
2022/08/04 11:47:11;;;;;;;22.10;7.80;;;;;;;14.94;82.46;100952.81;4818383;29;20064;-51
2022/08/04 11:49:44;;;;;;;19.90;7.53;;;;;;;14.81;82.84;100955.72;4821742;29;20069;-51
2022/08/04 11:52:16;;;;;;;18.42;7.70;;;;;;;14.88;82.93;100951.03;4823256;29;20034;-49
2022/08/04 11:54:44;;;;;;;21.38;7.63;;;;;;;14.95;82.35;100952.59;4821860;29;20045;-51
2022/08/04 11:57:10;;;;;;;19.45;7.38;;;;;;;14.93;82.27;100957.38;4822999;29;20041;-47
2022/08/04 11:59:39;;;;;;;22.75;7.50;;;;;;;14.93;82.37;100954.66;4821883;29;20114;-51
2022/08/04 12:02:23;;;;;;;23.15;7.63;;;;;;;14.95;82.45;100957.97;4823025;29;20444;-51
2022/08/04 12:04:56;;;;;;;26.50;8.07;;;;;;;14.97;82.85;100966.63;4821924;29;20109;-51
2022/08/04 12:07:38;;;;;;;28.83;8.10;;;;;;;14.95;82.63;100971.44;4823051;29;20030;-51
2022/08/04 12:10:10;;;;;;;20.08;7.63;;;;;;;14.94;82.78;100969.00;4821090;29;20121;-49
2022/08/04 12:13:09;;;;;;;23.60;8.52;;;;;;;14.98;82.82;100968.28;4821814;29;20121;-50